Terminal Aerodrome Forecast
Issued by NWS Denver/Boulder, CO

Home | Current Version | Previous Version | Text Only | Print | Product List | Glossary On
Versions: 1 2 3 4 5 6 7 8 9 10 11 12 13 14 15 16 17 18 19 20 21 22 23 24 25 26 27 28 29 30 31 32 33 34 35 36
000
FTUS45 KBOU 192329
TAFDEN
TAF
KDEN 192329Z 2000/2106 09010KT P6SM FEW090 BKN220
     FM200200 11010KT P6SM FEW100 SCT220
     FM200500 14010KT P6SM SCT200
     FM200800 20010KT P6SM FEW220
     FM201400 25005KT P6SM FEW220
     FM201700 03009KT P6SM FEW100 SCT220
     FM210300 14007KT P6SM SCT100 SCT220=

USA.gov is the U.S. government's official web portal to all federal, state and local government web resources and services.